Flight Track Log - Related Links

Times and Time Zones

All times are in EDT time to prevent confusion due to time zone crossing. See the N118RT flight status page for this flight to view local times or setup timezone preferences in your user account.

Time Position Orientation Groundspeed Altitude Reporting Facility
EDT Latitude Longitude Course Direction KTS MPH feet Rate Location/Type
Wed 12:58:19 PM 31.8006 -106.3583 93° East 156 180 4,400  Level Albuquerque Center
Wed 12:58:58 PM 31.7992 -106.3222 93° East 188 216 5,700 2,851 Climbing Albuquerque Center
Wed 01:00:00 PM 31.7608 -106.2603 126° Southeast 217 250 9,200 2,855 Climbing Albuquerque Center
Wed 01:01:02 PM 31.7147 -106.2142 140° Southeast 219 252 11,600 2,390 Climbing Albuquerque Center
Wed 01:02:03 PM 31.6597 -106.1731 148° Southeast 233 268 14,100 2,439 Climbing Albuquerque Center
Wed 01:03:05 PM 31.6019 -106.1311 148° Southeast 228 262 16,600 1,548 Climbing Albuquerque Center
Wed 01:04:07 PM 31.5397 -106.0853 148° Southeast 267 307 17,300 1,403 Climbing Albuquerque Center
Wed 01:05:09 PM 31.4733 -106.0314 145° Southeast 270 311 19,500 1,935 Climbing Albuquerque Center
Wed 01:06:11 PM 31.4206 -105.9756 138° Southeast 256 295 21,300 1,694 Climbing Albuquerque Center
Wed 01:07:13 PM 31.3683 -105.9022 130° Southeast 270 311 23,000 1,597 Climbing Albuquerque Center
Wed 01:08:15 PM 31.3178 -105.8353 131° Southeast 274 315 24,600 1,306 Climbing Albuquerque Center
Wed 01:09:17 PM 31.2683 -105.7689 131° Southeast 272 313 25,700 1,113 Climbing Albuquerque Center
Wed 01:10:19 PM 31.2133 -105.6953 131° Southeast 279 321 26,900 1,016 Climbing Albuquerque Center
Wed 01:11:21 PM 31.1656 -105.6303 131° Southeast 285 328 27,800 968 Climbing Albuquerque Center
Wed 01:12:23 PM 31.1136 -105.5589 130° Southeast 289 333 28,900 787 Climbing Albuquerque Center
Wed 01:17:50 PM 30.6950 -105.3180 130° Southeast 327 376 32,900 695 Climbing FlightAware ADS-B
Wed 01:18:34 PM 30.6370 -105.2960 162° South 326 375 33,200 196 Climbing FlightAware ADS-B
Wed 01:19:22 PM 30.5790 -105.2720 160° South 326 375 33,200 1,084 Level FlightAware ADS-B
Wed 01:19:57 PM 30.5100 -105.2480 163° South 327 376 34,700 1,714 Climbing FlightAware ADS-B
Wed 01:20:39 PM 30.4480 -105.2250 162° South 331 381 35,400 519 Climbing FlightAware ADS-B
Wed 01:21:18 PM 30.4000 -105.2060 161° South 331 381 35,400 857 Level FlightAware ADS-B
Wed 01:22:03 PM 30.3240 -105.1780 162° South 334 384 36,600 1,348 Climbing FlightAware ADS-B
Wed 01:22:47 PM 30.2630 -105.1550 162° South 329 379 37,400 830 Climbing FlightAware ADS-B
Wed 01:23:37 PM 30.1870 -105.1270 162° South 332 382 37,900 345 Climbing FlightAware ADS-B
Wed 01:24:14 PM 30.1410 -105.1080 160° South 332 382 37,900  Level FlightAware ADS-B
Wed 01:24:48 PM 30.0990 -105.0920 162° South 332 382 37,900  Level FlightAware ADS-B
Wed 01:25:38 PM 30.0370 -105.0670 161° South 332 382 37,900  Level FlightAware ADS-B
Wed 01:26:15 PM 29.9910 -105.0490 161° South 332 382 37,900  Level FlightAware ADS-B
Wed 01:26:52 PM 29.9460 -105.0310 161° South 332 382 37,900 1,348 Level FlightAware ADS-B
Wed 01:27:44 PM 29.8160 -104.9880 164° South 343 395 39,900 1,565 Climbing FlightAware ADS-B
Wed 01:28:24 PM 29.7570 -104.9660 162° South 339 390 40,300 357 Climbing FlightAware ADS-B
Wed 01:29:08 PM 29.6890 -104.9410 162° South 348 400 40,400 357 Climbing FlightAware ADS-B
Wed 01:29:48 PM 29.6270 -104.9180 162° South 346 398 40,800 308 Climbing FlightAware ADS-B
Wed 01:30:26 PM 29.5760 -104.8990 162° South 349 402 40,800  Level FlightAware ADS-B
Wed 01:31:15 PM 29.5120 -104.8750 162° South 349 402 40,800  Level FlightAware ADS-B
Wed 01:31:52 PM 29.4640 -104.8570 162° South 349 402 40,800  Level FlightAware ADS-B
Wed 01:32:40 PM 29.4010 -104.8340 162° South 349 402 40,800  Level FlightAware ADS-B
Wed 01:33:15 PM 29.3560 -104.8170 162° South 349 402 40,800  Level FlightAware ADS-B
Wed 01:34:01 PM 29.2960 -104.7940 162° South 349 402 40,800 141 Level FlightAware ADS-B
Wed 01:34:40 PM 29.1560 -104.7440 163° South 380 437 41,000 148 Climbing FlightAware ADS-B
Wed 01:35:22 PM 29.0860 -104.7180 162° South 382 440 41,000  Level FlightAware ADS-B
Wed 01:36:08 PM 29.0080 -104.6900 163° South 383 441 41,000  Level FlightAware ADS-B
Wed 01:36:48 PM 28.9390 -104.6650 162° South 384 442 41,000  Level FlightAware ADS-B
Wed 01:37:32 PM 28.8650 -104.6370 162° South 384 442 41,000  Level FlightAware ADS-B
Wed 01:38:12 PM 28.7980 -104.6130 163° South 385 443 41,000  Level FlightAware ADS-B
Wed 01:38:56 PM 28.7220 -104.5850 162° South 385 443 41,000  Level FlightAware ADS-B
Wed 01:39:38 PM 28.6520 -104.5600 163° South 384 442 41,000  Level FlightAware ADS-B
Wed 01:40:17 PM 28.5870 -104.5360 162° South 383 441 41,000  Level FlightAware ADS-B
Wed 01:40:52 PM 28.5260 -104.5140 162° South 382 440 41,000  Level FlightAware ADS-B
Wed 01:41:37 PM 28.4510 -104.4870 162° South 382 440 41,000  Level FlightAware ADS-B
Wed 01:42:14 PM 28.3890 -104.4650 163° South 382 440 41,000  Level FlightAware ADS-B
Wed 01:43:01 PM 28.3100 -104.4360 162° South 382 440 41,000  Level FlightAware ADS-B
Wed 01:43:42 PM 28.2400 -104.4110 163° South 382 440 41,000  Level FlightAware ADS-B
Wed 01:44:24 PM 28.1690 -104.3850 162° South 382 440 41,000  Level FlightAware ADS-B
Wed 01:45:02 PM 28.1050 -104.3630 163° South 382 440 41,000  Level FlightAware ADS-B
Wed 01:45:40 PM 28.0400 -104.3390 162° South 381 438 41,000  Level FlightAware ADS-B
Wed 01:46:22 PM 27.9690 -104.3140 163° South 382 440 41,000  Level FlightAware ADS-B
Wed 01:47:06 PM 27.8950 -104.2870 162° South 381 438 41,000  Level FlightAware ADS-B
Wed 01:47:44 PM 27.8310 -104.2640 162° South 382 440 41,000  Level FlightAware ADS-B
Wed 01:48:27 PM 27.7580 -104.2380 163° South 381 438 41,000  Level FlightAware ADS-B
Wed 01:49:08 PM 27.6880 -104.2130 162° South 382 440 41,000  Level FlightAware ADS-B
Wed 01:49:55 PM 27.6100 -104.1860 163° South 382 440 41,000  Level FlightAware ADS-B
Wed 01:50:34 PM 27.5440 -104.1620 162° South 383 441 41,000  Level FlightAware ADS-B
Wed 01:51:14 PM 27.4770 -104.1380 162° South 382 440 41,000  Level FlightAware ADS-B
Wed 01:51:58 PM 27.4010 -104.1110 162° South 382 440 41,000  Level FlightAware ADS-B
Wed 01:52:40 PM 27.3300 -104.0860 163° South 382 440 41,000 -635 Level FlightAware ADS-B
Wed 01:53:23 PM 27.2610 -104.0620 163° South 398 458 40,100 -1,000 Descending FlightAware ADS-B
Wed 01:54:04 PM 27.1930 -104.0370 162° South 404 465 39,600 -390 Descending FlightAware ADS-B
Wed 01:54:40 PM 27.1390 -104.0180 163° South 404 465 39,600  Level FlightAware ADS-B
Wed 01:55:28 PM 27.0660 -103.9910 162° South 404 465 39,600  Level FlightAware ADS-B
Wed 01:56:05 PM 27.0100 -103.9710 162° South 404 465 39,600  Level FlightAware ADS-B
Wed 01:56:53 PM 26.9380 -103.9440 162° South 404 465 39,600 -5,659 Level FlightAware ADS-B
Wed 01:57:33 PM 26.8220 -103.8950 159° South 395 455 31,300 -6,468 Descending FlightAware ADS-B
Wed 01:58:10 PM 26.7680 -103.8740 161° South 395 455 31,300  Level FlightAware ADS-B
Wed 01:58:56 PM 26.7000 -103.8480 161° South 395 455 31,300 -2,442 Level FlightAware ADS-B
Wed 01:59:36 PM 26.6180 -103.8160 161° South 387 445 27,800 -2,360 Descending FlightAware ADS-B
Wed 02:00:25 PM 26.5480 -103.7890 161° South 387 445 27,800 -2,414 Level FlightAware ADS-B
Wed 02:01:03 PM 26.4900 -103.7660 160° South 344 396 24,300 -4,059 Descending FlightAware ADS-B
Wed 02:01:33 PM 26.4380 -103.7460 161° South 344 396 23,200 -2,000 Descending FlightAware ADS-B
Wed 02:02:33 PM 26.3480 -103.7110 161° South 335 386 21,300 -1,353 Descending FlightAware ADS-B
Wed 02:03:15 PM 26.2970 -103.6910 161° South 335 386 20,900 -308 Descending FlightAware ADS-B
Wed 02:03:51 PM 26.2520 -103.6740 161° South 335 386 20,900 -1,425 Level FlightAware ADS-B
Wed 02:04:35 PM 26.1850 -103.6480 161° South 322 371 19,000 -2,804 Descending FlightAware ADS-B
Wed 02:05:38 PM 26.1030 -103.6160 161° South 282 325 15,900 -2,585 Descending FlightAware ADS-B
Wed 02:06:38 PM 26.0300 -103.5880 161° South 265 305 13,700 -2,190 Descending FlightAware ADS-B
Wed 02:07:44 PM 25.9540 -103.5580 160° South 251 289 11,300 -2,165 Descending FlightAware ADS-B
Wed 02:08:51 PM 25.8830 -103.5310 161° South 240 276 8,900 -2,000 Descending FlightAware ADS-B
Wed 02:09:20 PM 25.8530 -103.5190 160° South 229 264 8,100 -1,500 Descending FlightAware ADS-B
Wed 02:09:35 PM 25.8370 -103.5130 161° South 220 253 7,800 -1,333 Descending FlightAware ADS-B
Wed 02:10:05 PM 25.8070 -103.5140 182° South 217 250 7,100 -1,304 Descending FlightAware ADS-B
Wed 02:10:21 PM 25.7950 -103.5190 201° Southwest 219 252 6,800 -735 Descending FlightAware ADS-B
Wed 02:10:54 PM 25.7620 -103.5310 198° South 216 249 6,500 -234 Descending FlightAware ADS-B
Wed 02:11:38 PM 25.7280 -103.5420 196° South 196 226 6,500 -146 Level FlightAware ADS-B
Wed 02:12:16 PM 25.6970 -103.5380 173° South 177 204 6,300 -571 Descending FlightAware ADS-B
Wed 02:13:02 PM 25.6600 -103.5100 146° Southeast 171 197 5,700 -727 Descending FlightAware ADS-B
Wed 02:13:22 PM 25.6520 -103.5010 135° Southeast 171 197 5,500 -522 Descending FlightAware ADS-B
Wed 02:13:48 PM 25.6380 -103.4850 134° Southeast 156 180 5,300 -689 Descending FlightAware ADS-B
Wed 02:14:23 PM 25.6200 -103.4660 136° Southeast 128 147 4,800 -771 Descending FlightAware ADS-B
Wed 02:14:58 PM 25.6050 -103.4500 136° Southeast 116 133 4,400 -700 Descending FlightAware ADS-B
Wed 02:15:23 PM 25.5960 -103.4400 135° Southeast 113 130 4,100 -612 Descending FlightAware ADS-B
Wed 02:15:47 PM 25.5870 -103.4300 135° Southeast 111 128 3,900 -556 Descending FlightAware ADS-B
Wed 02:16:17 PM 25.5750 -103.4180 138° Southeast 114 131 3,600 -429 Descending FlightAware ADS-B
Wed 02:16:29 PM 25.5730 -103.4160 138° Southeast 112 129 3,600  Level FlightAware ADS-B
Wed 02:19:00 PM 25.5667 -103.4167 270° West  Level FlightAware Approximate
Wed 02:20:00 PM 25.5683 -103.4106 270° West  Level Estimated
Wed 02:21:00 PM 25.5667 -103.4167 270° West  Level FlightAware Approximate
Wed 02:22:00 PM 25.5683 -103.4106 270° West  Level Estimated
Wed 02:23:00 PM 25.5667 -103.4167 270° West  Level FlightAware Approximate
Wed 02:24:00 PM 25.5683 -103.4106 270° West  Level Estimated
Wed 02:25:00 PM 25.5667 -103.4167 270° West  Level FlightAware Approximate
Wed 02:26:00 PM 25.5683 -103.4106 270° West  Level Estimated
Wed 02:27:00 PM 25.5667 -103.4167 270° West  Level FlightAware Approximate
Wed 02:28:00 PM 25.5683 -103.4106 270° West  Level Estimated
Wed 02:29:00 PM 25.5667 -103.4167 270° West  Level FlightAware Approximate
Wed 02:30:00 PM 25.5683 -103.4106 270° West  Level Estimated
Wed 02:31:00 PM 25.5667 -103.4167 270° West  Level FlightAware Approximate
Wed 02:32:00 PM 25.5683 -103.4106 270° West  Level Estimated
Wed 02:33:00 PM 25.5667 -103.4167 270° West  Level FlightAware Approximate
Wed 02:34:00 PM 25.5683 -103.4106 270° West  Level Estimated
Wed 02:35:00 PM 25.5667 -103.4167 270° West  Level FlightAware Approximate
Wed 02:36:00 PM 25.5683 -103.4106 270° West  Level Estimated
Wed 02:37:00 PM 25.5667 -103.4167 270° West  Level FlightAware Approximate
Wed 02:38:00 PM 25.5683 -103.4106 270° West  Level Estimated

Login

Don't have an account? Register now (free) for customized features, flight alerts, and more!